Longwood, Wisconsin
Current Conditions -  °F | °C
As of 3:55 AM on Wednesday 26 Nov 2014 (Local Time) from KMDZ Reporting Station
Overcast Overcast  
Wind Chill: 11°   Ceiling: 6000
Heat Index: 18°   Visibility: 10mi
Dew Point: 15°   Wind: 5mph
Humidity: 89%   Direction: 120°ESE
Pressure: 30.06"   Gusts: NA
Location:  45.0116°N, 90.6109°W
Report Text: KMDZ 260955Z AUTO 12004KT 10SM OVC060 M08/M09 A3006 RMK AO2 T10801095
Loading
Personal Weather Stations






























Interactive Weather Map New forecast layout! Learn more

10-Day Weather Forecast

Advertisements
Track Severe Weather on mobile